Aviation Digital Data Service (ADDS)

Output produced by METARs form (1218 UTC 25 June 2017)
found at http://aviationweather.gov/adds/metars/
 
KISP 251132Z 2512/2612 36003KT P6SM FEW100 FEW250 
     FM251500 25006KT P6SM SCT250 
     FM251700 21009KT P6SM FEW080 
     FM251900 21010G17KT P6SM FEW080 
     FM252300 23009KT P6SM SCT060 
     FM260500 27005KT P6SM FEW060